createdAt,value
2022-12-12T00:02:12.530Z,-5.00
2022-12-12T00:04:39.840Z,-5.00
2022-12-12T00:07:06.657Z,-4.97
2022-12-12T00:09:33.359Z,-5.00
2022-12-12T00:12:00.201Z,-4.98
2022-12-12T00:14:27.199Z,-4.97
2022-12-12T00:16:54.058Z,-4.95
2022-12-12T00:19:20.969Z,-4.93
2022-12-12T00:21:47.623Z,-4.93
2022-12-12T00:24:14.306Z,-4.92
2022-12-12T00:26:41.075Z,-4.92
2022-12-12T00:29:08.123Z,-4.89
2022-12-12T00:31:34.953Z,-4.88
2022-12-12T00:34:01.717Z,-4.87
2022-12-12T00:36:30.103Z,-4.86
2022-12-12T00:38:57.737Z,-4.86
2022-12-12T00:41:24.765Z,-4.87
2022-12-12T00:43:51.437Z,-4.87
2022-12-12T00:46:21.372Z,-4.87
2022-12-12T00:48:49.426Z,-4.89
2022-12-12T00:51:18.874Z,-4.89
2022-12-12T00:53:46.629Z,-4.88
2022-12-12T00:56:16.291Z,-4.88
2022-12-12T00:58:43.170Z,-4.89
2022-12-12T01:01:14.659Z,-4.89
2022-12-12T01:03:42.097Z,-4.90
2022-12-12T01:06:10.140Z,-4.87
2022-12-12T01:08:38.098Z,-4.88
2022-12-12T01:11:05.998Z,-4.88
2022-12-12T01:13:33.737Z,-4.88
2022-12-12T01:16:00.523Z,-4.90
2022-12-12T01:18:27.305Z,-4.88
2022-12-12T01:20:54.028Z,-4.87
2022-12-12T01:23:20.765Z,-4.87
2022-12-12T01:25:47.420Z,-4.87
2022-12-12T01:28:14.224Z,-4.88
2022-12-12T01:30:41.458Z,-4.85
2022-12-12T01:33:08.109Z,-4.86
2022-12-12T01:35:35.285Z,-4.86
2022-12-12T01:38:02.026Z,-4.86
2022-12-12T01:40:31.252Z,-4.86
2022-12-12T01:42:59.043Z,-4.86
2022-12-12T01:45:56.863Z,-4.84
2022-12-12T01:48:28.657Z,-4.82
2022-12-12T01:50:58.358Z,-4.82
2022-12-12T01:53:28.946Z,-4.83
2022-12-12T01:55:57.061Z,-4.81
2022-12-12T01:58:25.265Z,-4.82
2022-12-12T02:00:51.956Z,-4.82
2022-12-12T02:03:18.898Z,-4.79
2022-12-12T02:05:55.925Z,-4.77
2022-12-12T02:08:25.205Z,-4.76
2022-12-12T02:10:51.978Z,-4.75
2022-12-12T02:13:27.371Z,-4.75
2022-12-12T02:16:01.483Z,-4.74
2022-12-12T02:18:35.824Z,-4.76
2022-12-12T02:21:25.923Z,-4.77
2022-12-12T02:24:26.245Z,-4.76
2022-12-12T02:27:30.915Z,-4.76
2022-12-12T02:30:22.324Z,-4.77
2022-12-12T02:32:58.200Z,-4.78
2022-12-12T02:35:41.268Z,-4.78
2022-12-12T02:38:24.061Z,-4.79
2022-12-12T02:41:34.027Z,-4.80
2022-12-12T02:44:17.834Z,-4.82
2022-12-12T02:46:53.806Z,-4.80
2022-12-12T02:49:28.315Z,-4.79
2022-12-12T02:51:57.870Z,-4.78
2022-12-12T02:54:24.885Z,-4.78
2022-12-12T02:56:59.265Z,-4.82
2022-12-12T02:59:33.515Z,-4.84
2022-12-12T03:02:44.805Z,-4.83
2022-12-12T03:05:57.912Z,-4.86
2022-12-12T03:08:39.750Z,-4.85
2022-12-12T03:11:10.450Z,-4.86
2022-12-12T03:13:57.243Z,-4.88
2022-12-12T03:16:27.354Z,-4.88
2022-12-12T03:19:11.922Z,-4.90
2022-12-12T03:22:06.767Z,-4.90
2022-12-12T03:24:39.413Z,-4.91
2022-12-12T03:27:40.472Z,-4.93
2022-12-12T03:30:13.367Z,-4.93
2022-12-12T03:32:46.366Z,-4.94
2022-12-12T03:35:19.199Z,-4.95
2022-12-12T03:37:51.618Z,-4.94
2022-12-12T03:40:26.375Z,-4.93
2022-12-12T03:43:08.303Z,-4.93
2022-12-12T03:46:01.057Z,-4.94
2022-12-12T03:48:30.600Z,-4.94
2022-12-12T03:51:08.166Z,-4.95
2022-12-12T03:53:53.787Z,-4.97
2022-12-12T03:56:32.711Z,-4.97
2022-12-12T03:59:12.223Z,-4.98
2022-12-12T04:01:52.106Z,-4.98
2022-12-12T04:04:39.361Z,-4.99
2022-12-12T04:07:15.091Z,-4.99
2022-12-12T04:10:01.369Z,-5.01
2022-12-12T04:12:46.778Z,-5.00
2022-12-12T04:15:22.322Z,-5.02
2022-12-12T04:18:03.450Z,-5.02
2022-12-12T04:21:03.094Z,-5.01
2022-12-12T04:23:47.325Z,-5.00
2022-12-12T04:26:38.603Z,-5.02
2022-12-12T04:29:18.869Z,-5.00
2022-12-12T04:31:54.598Z,-5.00
2022-12-12T04:34:43.640Z,-5.00
2022-12-12T04:37:15.772Z,-4.99
2022-12-12T04:39:47.953Z,-4.98
2022-12-12T04:42:18.248Z,-4.99
2022-12-12T04:44:46.780Z,-5.00
2022-12-12T04:47:14.972Z,-4.99
2022-12-12T04:49:45.237Z,-4.98
2022-12-12T04:52:14.399Z,-4.99
2022-12-12T04:54:57.472Z,-4.99
2022-12-12T04:57:31.077Z,-4.99
2022-12-12T04:59:58.000Z,-5.00
2022-12-12T05:02:31.705Z,-5.00
2022-12-12T05:05:04.022Z,-4.99
2022-12-12T05:07:40.077Z,-5.00
2022-12-12T05:10:14.182Z,-4.98
2022-12-12T05:12:46.426Z,-4.97
2022-12-12T05:15:16.134Z,-4.97
2022-12-12T05:17:46.769Z,-4.95
2022-12-12T05:20:15.113Z,-4.93
2022-12-12T05:22:42.059Z,-4.92
2022-12-12T05:25:09.141Z,-4.92
2022-12-12T05:27:35.948Z,-4.92
2022-12-12T05:30:03.402Z,-4.91
2022-12-12T05:32:30.095Z,-4.90
2022-12-12T05:34:56.912Z,-4.90
2022-12-12T05:37:23.615Z,-4.90
2022-12-12T05:39:50.532Z,-4.89
2022-12-12T05:42:17.176Z,-4.89
2022-12-12T05:44:44.033Z,-4.89
2022-12-12T05:47:10.870Z,-4.87
2022-12-12T05:49:37.576Z,-4.89
2022-12-12T05:52:04.466Z,-4.87
2022-12-12T05:54:31.218Z,-4.86
2022-12-12T05:56:57.845Z,-4.84
2022-12-12T05:59:25.495Z,-4.85
2022-12-12T06:01:52.299Z,-4.85
2022-12-12T06:04:19.012Z,-4.86
2022-12-12T06:06:45.965Z,-4.84
2022-12-12T06:09:12.743Z,-4.82
2022-12-12T06:11:39.418Z,-4.81
2022-12-12T06:14:06.178Z,-4.78
2022-12-12T06:16:34.888Z,-4.78
2022-12-12T06:19:02.152Z,-4.77
2022-12-12T06:21:28.913Z,-4.76
2022-12-12T06:23:56.520Z,-4.73
2022-12-12T06:26:23.254Z,-4.72
2022-12-12T06:28:49.905Z,-4.72
2022-12-12T06:31:16.776Z,-4.70
2022-12-12T06:33:43.779Z,-4.70
2022-12-12T06:36:23.496Z,-4.69
2022-12-12T06:38:53.092Z,-4.68
2022-12-12T06:41:22.815Z,-4.68
2022-12-12T06:43:50.206Z,-4.66
2022-12-12T06:46:23.331Z,-4.66
2022-12-12T06:48:50.537Z,-4.64
2022-12-12T06:51:20.463Z,-4.65
2022-12-12T06:53:47.671Z,-4.65
2022-12-12T06:56:17.416Z,-4.64
2022-12-12T06:58:44.458Z,-4.63
2022-12-12T07:01:13.034Z,-4.62
2022-12-12T07:03:57.599Z,-4.62
2022-12-12T07:06:25.035Z,-4.61
2022-12-12T07:08:52.454Z,-4.59
2022-12-12T07:11:22.528Z,-4.58
2022-12-12T07:13:50.185Z,-4.57
2022-12-12T07:16:18.106Z,-4.56
2022-12-12T07:18:45.480Z,-4.52
2022-12-12T07:21:15.891Z,-4.51
2022-12-12T07:23:42.593Z,-4.50
2022-12-12T07:26:13.380Z,-4.47
2022-12-12T07:28:40.164Z,-4.38
2022-12-12T07:31:14.493Z,-4.33
2022-12-12T07:33:44.519Z,-4.30
2022-12-12T07:36:13.072Z,-4.30
2022-12-12T07:38:40.754Z,-4.29
2022-12-12T07:41:10.703Z,-4.27
2022-12-12T07:43:43.275Z,-4.25
2022-12-12T07:46:15.536Z,-4.20
2022-12-12T07:48:42.717Z,-4.17
2022-12-12T07:51:09.588Z,-4.12
2022-12-12T07:53:36.494Z,-4.10
2022-12-12T07:56:08.201Z,-4.08
2022-12-12T07:58:35.595Z,-4.07
2022-12-12T08:01:18.174Z,-4.05
2022-12-12T08:03:46.283Z,-4.01
2022-12-12T08:06:13.612Z,-3.96
2022-12-12T08:08:40.526Z,-3.92
2022-12-12T08:11:09.649Z,-3.90
2022-12-12T08:13:38.574Z,-3.87
2022-12-12T08:16:11.352Z,-3.83
2022-12-12T08:18:38.035Z,-3.80
2022-12-12T08:21:13.142Z,-3.78
2022-12-12T08:23:40.856Z,-3.74
2022-12-12T08:26:13.974Z,-3.74
2022-12-12T08:28:44.151Z,-3.72
2022-12-12T08:31:13.687Z,-3.71
2022-12-12T08:33:41.038Z,-3.67
2022-12-12T08:36:17.323Z,-3.63
2022-12-12T08:38:44.430Z,-3.61
2022-12-12T08:41:12.343Z,-3.61
2022-12-12T08:43:40.657Z,-3.56
2022-12-12T08:46:13.748Z,-3.54
2022-12-12T08:48:44.667Z,-3.50
2022-12-12T08:51:12.573Z,-3.46
2022-12-12T08:53:40.105Z,-3.44
2022-12-12T08:56:07.158Z,-3.42
2022-12-12T08:58:33.869Z,-3.41
2022-12-12T09:01:00.536Z,-3.38
2022-12-12T09:03:29.460Z,-3.36
2022-12-12T09:05:57.553Z,-3.36
2022-12-12T09:08:24.336Z,-3.32
2022-12-12T09:10:51.434Z,-3.30
2022-12-12T09:13:18.288Z,-3.26
2022-12-12T09:15:45.121Z,-3.25
2022-12-12T09:18:11.895Z,-3.24
2022-12-12T09:20:38.749Z,-3.20
2022-12-12T09:23:05.400Z,-3.14
2022-12-12T09:25:32.302Z,-3.09
2022-12-12T09:27:59.007Z,-3.06
2022-12-12T09:30:25.717Z,-3.01
2022-12-12T09:32:52.399Z,-2.97
2022-12-12T09:35:19.123Z,-2.92
2022-12-12T09:37:45.874Z,-2.85
2022-12-12T09:40:18.897Z,-2.80
2022-12-12T09:42:50.000Z,-2.75
2022-12-12T09:45:18.931Z,-2.73
2022-12-12T09:47:48.609Z,-2.71
2022-12-12T09:50:18.794Z,-2.69
2022-12-12T09:52:45.922Z,-2.57
2022-12-12T09:55:33.567Z,-2.54
2022-12-12T09:58:19.135Z,-2.58
2022-12-12T10:01:30.477Z,-2.57
2022-12-12T10:04:29.442Z,-2.56
2022-12-12T10:07:19.097Z,-2.51
2022-12-12T10:10:07.278Z,-2.53
2022-12-12T10:12:34.420Z,-2.55
2022-12-12T10:15:17.358Z,-2.59
2022-12-12T10:17:46.821Z,-2.62
2022-12-12T10:20:18.523Z,-2.63
2022-12-12T10:22:48.088Z,-2.63
2022-12-12T10:25:22.878Z,-2.68
2022-12-12T10:27:53.576Z,-2.71
2022-12-12T10:30:21.000Z,-2.72
2022-12-12T10:33:12.078Z,-2.69
2022-12-12T10:35:56.747Z,-2.73
2022-12-12T10:38:47.712Z,-2.77
2022-12-12T10:41:23.309Z,-2.77
2022-12-12T10:44:11.625Z,-2.80
2022-12-12T10:46:43.338Z,-2.79
2022-12-12T10:49:20.227Z,-2.80
2022-12-12T10:51:49.214Z,-2.81
2022-12-12T10:54:23.461Z,-2.82
2022-12-12T10:57:20.139Z,-2.79
2022-12-12T10:59:53.088Z,-2.82
2022-12-12T11:02:37.624Z,-2.87
2022-12-12T11:05:04.711Z,-2.89
2022-12-12T11:07:37.063Z,-2.90
2022-12-12T11:10:21.830Z,-2.87
2022-12-12T11:13:01.295Z,-2.85
2022-12-12T11:15:39.032Z,-2.89
2022-12-12T11:18:11.233Z,-2.89
2022-12-12T11:20:47.322Z,-2.90
2022-12-12T11:23:27.112Z,-2.90
2022-12-12T11:26:00.333Z,-2.90
2022-12-12T11:28:32.454Z,-2.94
2022-12-12T11:31:03.594Z,-2.94
2022-12-12T11:33:36.727Z,-2.96
2022-12-12T11:36:06.157Z,-2.96
2022-12-12T11:38:51.079Z,-2.93
2022-12-12T11:41:18.729Z,-2.92
2022-12-12T11:43:48.383Z,-2.91
2022-12-12T11:46:15.536Z,-2.91
2022-12-12T11:48:51.744Z,-2.92
2022-12-12T11:51:30.808Z,-2.93
2022-12-12T11:54:00.546Z,-2.95
2022-12-12T11:56:43.516Z,-2.91
2022-12-12T11:59:10.266Z,-2.93
2022-12-12T12:02:02.347Z,-2.93
2022-12-12T12:04:54.171Z,-2.91
2022-12-12T12:07:29.501Z,-2.93
2022-12-12T12:10:01.588Z,-2.93
2022-12-12T12:13:00.270Z,-2.90
2022-12-12T12:15:36.012Z,-2.91
2022-12-12T12:18:15.563Z,-2.90
2022-12-12T12:21:07.301Z,-2.88
2022-12-12T12:24:06.322Z,-2.89
2022-12-12T12:26:42.877Z,-2.80
2022-12-12T12:29:21.503Z,-2.74
2022-12-12T12:31:53.908Z,-2.72
2022-12-12T12:34:31.398Z,-2.65
2022-12-12T12:37:07.466Z,-2.69
2022-12-12T12:39:55.756Z,-2.74
2022-12-12T12:42:32.840Z,-2.74
2022-12-12T12:45:21.485Z,-2.76
2022-12-12T12:47:57.148Z,-2.77
2022-12-12T12:50:29.439Z,-2.80
2022-12-12T12:53:18.010Z,-2.82
2022-12-12T12:55:51.188Z,-2.84
2022-12-12T12:58:22.638Z,-2.86
2022-12-12T13:01:00.259Z,-2.87
2022-12-12T13:03:34.954Z,-2.84
2022-12-12T13:06:08.108Z,-2.83
2022-12-12T13:08:43.828Z,-2.83
2022-12-12T13:11:26.803Z,-2.82
2022-12-12T13:13:58.979Z,-2.82
2022-12-12T13:16:32.036Z,-2.81
2022-12-12T13:19:20.942Z,-2.79
2022-12-12T13:22:30.261Z,-2.80
2022-12-12T13:25:23.322Z,-2.82
2022-12-12T13:27:53.694Z,-2.83
2022-12-12T13:30:37.591Z,-2.84
2022-12-12T13:33:13.290Z,-2.86
2022-12-12T13:35:47.873Z,-2.89
2022-12-12T13:38:26.735Z,-2.93
2022-12-12T13:41:00.411Z,-2.91
2022-12-12T13:43:42.886Z,-2.82
2022-12-12T13:46:22.859Z,-2.82
2022-12-12T13:49:24.011Z,-2.86
2022-12-12T13:51:50.899Z,-2.89
2022-12-12T13:54:17.512Z,-2.91
2022-12-12T13:56:52.925Z,-2.93
2022-12-12T13:59:22.704Z,-2.94
2022-12-12T14:02:17.374Z,-2.94
2022-12-12T14:04:44.360Z,-2.94
2022-12-12T14:07:27.082Z,-2.94
2022-12-12T14:09:56.243Z,-2.94
2022-12-12T14:12:32.098Z,-2.94
2022-12-12T14:15:04.467Z,-2.97
2022-12-12T14:17:41.849Z,-2.98
2022-12-12T14:20:24.938Z,-3.01
2022-12-12T14:22:51.663Z,-3.04
2022-12-12T14:25:32.960Z,-3.00
2022-12-12T14:28:13.099Z,-2.98
2022-12-12T14:30:45.512Z,-3.03
2022-12-12T14:37:11.337Z,-3.07
2022-12-12T14:39:49.761Z,-3.08
2022-12-12T14:43:19.777Z,-3.09
2022-12-12T14:45:39.538Z,-3.11
2022-12-12T14:48:32.159Z,-3.14
2022-12-12T14:51:10.046Z,-3.13
2022-12-12T14:53:37.777Z,-3.16
2022-12-12T14:56:14.804Z,-3.16
2022-12-12T14:58:45.603Z,-3.15
2022-12-12T15:01:16.055Z,-3.14
2022-12-12T15:03:46.635Z,-3.14
2022-12-12T15:06:33.660Z,-3.12
2022-12-12T15:09:28.646Z,-3.13
2022-12-12T15:12:04.126Z,-3.12
2022-12-12T15:14:30.949Z,-3.10
2022-12-12T15:17:18.412Z,-3.10
2022-12-12T15:19:48.788Z,-3.10
2022-12-12T15:22:23.042Z,-3.08
2022-12-12T15:24:50.657Z,-3.05
2022-12-12T15:27:25.458Z,-3.04
2022-12-12T15:29:53.550Z,-3.04
2022-12-12T15:32:23.885Z,-3.05
2022-12-12T15:35:09.094Z,-3.05
2022-12-12T15:37:37.859Z,-3.05
2022-12-12T15:40:10.028Z,-3.05
2022-12-12T15:42:39.522Z,-3.03
2022-12-12T15:45:08.814Z,-3.02
2022-12-12T15:47:35.619Z,-3.01
2022-12-12T15:50:11.786Z,-3.03
2022-12-12T15:52:38.855Z,-3.03
2022-12-12T15:55:21.894Z,-3.02
2022-12-12T15:57:51.283Z,-3.00
2022-12-12T16:00:37.373Z,-3.00
2022-12-12T16:03:09.261Z,-3.01
2022-12-12T16:05:38.173Z,-3.00
2022-12-12T16:08:31.805Z,-2.99
2022-12-12T16:11:02.627Z,-2.98
2022-12-12T16:13:43.687Z,-2.98
2022-12-12T16:16:38.293Z,-2.96
2022-12-12T16:19:17.328Z,-2.97
2022-12-12T16:21:44.070Z,-2.95
2022-12-12T16:24:19.605Z,-2.94
2022-12-12T16:26:46.656Z,-2.91
2022-12-12T16:29:13.338Z,-2.92
2022-12-12T16:31:40.071Z,-2.90
2022-12-12T16:34:06.761Z,-2.90
2022-12-12T16:36:40.036Z,-2.91
2022-12-12T16:39:10.547Z,-2.89
2022-12-12T16:41:37.382Z,-2.88
2022-12-12T16:44:04.054Z,-2.87
2022-12-12T16:46:30.903Z,-2.88
2022-12-12T16:49:03.757Z,-2.87
2022-12-12T16:51:33.394Z,-2.83
2022-12-12T16:54:00.933Z,-2.84
2022-12-12T16:56:27.609Z,-2.83
2022-12-12T16:58:55.751Z,-2.82
2022-12-12T17:01:22.752Z,-2.82
2022-12-12T17:03:49.628Z,-2.81
2022-12-12T17:06:16.383Z,-2.78
2022-12-12T17:08:43.163Z,-2.78
2022-12-12T17:11:11.743Z,-2.76
2022-12-12T17:13:47.355Z,-2.76
2022-12-12T17:16:14.537Z,-2.77
2022-12-12T17:18:41.312Z,-2.76
2022-12-12T17:21:08.073Z,-2.75
2022-12-12T17:23:34.858Z,-2.73
2022-12-12T17:26:04.647Z,-2.72
2022-12-12T17:28:33.491Z,-2.70
2022-12-12T17:31:00.862Z,-2.68
2022-12-12T17:33:27.521Z,-2.65
2022-12-12T17:35:59.639Z,-2.65
2022-12-12T17:38:27.399Z,-2.65
2022-12-12T17:40:56.132Z,-2.67
2022-12-12T17:43:24.101Z,-2.67
2022-12-12T17:45:59.338Z,-2.69
2022-12-12T17:48:31.535Z,-2.67
2022-12-12T17:51:01.889Z,-2.68
2022-12-12T17:53:37.459Z,-2.67
2022-12-12T17:56:09.940Z,-2.67
2022-12-12T17:58:39.206Z,-2.66
2022-12-12T18:01:13.570Z,-2.66
2022-12-12T18:03:41.597Z,-2.65
2022-12-12T18:06:10.187Z,-2.64
2022-12-12T18:08:37.882Z,-2.64
2022-12-12T18:11:11.640Z,-2.65
2022-12-12T18:13:39.582Z,-2.65
2022-12-12T18:16:12.073Z,-2.65
2022-12-12T18:18:39.001Z,-2.66
2022-12-12T18:21:10.373Z,-2.65
2022-12-12T18:23:37.588Z,-2.66
2022-12-12T18:26:07.329Z,-2.67
2022-12-12T18:28:35.188Z,-2.65
2022-12-12T18:31:03.553Z,-2.64
2022-12-12T18:33:30.892Z,-2.66
2022-12-12T18:36:07.580Z,-2.67
2022-12-12T18:38:35.703Z,-2.63
2022-12-12T18:41:04.223Z,-2.62
2022-12-12T18:43:32.185Z,-2.62
2022-12-12T18:46:10.182Z,-2.62
2022-12-12T18:48:39.271Z,-2.63
2022-12-12T18:51:12.376Z,-2.62
2022-12-12T18:53:42.456Z,-2.62
2022-12-12T18:56:12.968Z,-2.63
2022-12-12T18:58:40.103Z,-2.62
2022-12-12T19:01:09.316Z,-2.63
2022-12-12T19:03:37.566Z,-2.63
2022-12-12T19:06:11.517Z,-2.63
2022-12-12T19:08:38.277Z,-2.64
2022-12-12T19:11:05.843Z,-2.62
2022-12-12T19:13:36.429Z,-2.66
2022-12-12T19:16:09.959Z,-2.67
2022-12-12T19:18:38.093Z,-2.66
2022-12-12T19:21:13.953Z,-2.67
2022-12-12T19:23:41.329Z,-2.68
2022-12-12T19:26:24.523Z,-2.66
2022-12-12T19:28:55.163Z,-2.65
2022-12-12T19:31:22.395Z,-2.67
2022-12-12T19:33:49.209Z,-2.70
2022-12-12T19:36:24.915Z,-2.72
2022-12-12T19:38:53.266Z,-2.71
2022-12-12T19:41:21.812Z,-2.72
2022-12-12T19:43:50.650Z,-2.74
2022-12-12T19:46:20.444Z,-2.73
2022-12-12T19:48:48.387Z,-2.73
2022-12-12T19:51:20.434Z,-2.72
2022-12-12T19:53:49.841Z,-2.78
2022-12-12T19:56:18.707Z,-2.79
2022-12-12T19:58:46.074Z,-2.80
2022-12-12T20:01:19.573Z,-2.80
2022-12-12T20:03:54.628Z,-2.82
2022-12-12T20:06:22.781Z,-2.83
2022-12-12T20:08:51.031Z,-2.85
2022-12-12T20:11:20.720Z,-2.84
2022-12-12T20:13:50.514Z,-2.84
2022-12-12T20:16:20.016Z,-2.85
2022-12-12T20:18:49.053Z,-2.87
2022-12-12T20:21:51.650Z,-2.86
2022-12-12T20:24:09.054Z,-2.85
2022-12-12T20:26:36.713Z,-2.88
2022-12-12T20:29:03.779Z,-2.89
2022-12-12T20:31:34.809Z,-2.90
2022-12-12T20:34:02.147Z,-2.89
2022-12-12T20:36:31.867Z,-2.90
2022-12-12T20:39:00.760Z,-2.92
2022-12-12T20:41:30.080Z,-2.95
2022-12-12T20:43:58.370Z,-2.96
2022-12-12T20:46:32.789Z,-2.97
2022-12-12T20:49:03.764Z,-2.98
2022-12-12T20:51:54.806Z,-2.99
2022-12-12T20:54:20.881Z,-3.00
2022-12-12T20:56:52.098Z,-3.01
2022-12-12T20:59:19.487Z,-3.02
2022-12-12T21:01:47.313Z,-3.01
2022-12-12T21:04:15.053Z,-3.02
2022-12-12T21:06:47.566Z,-3.04
2022-12-12T21:09:22.606Z,-3.01
2022-12-12T21:11:49.932Z,-3.02
2022-12-12T21:14:16.672Z,-3.03
2022-12-12T21:16:45.951Z,-3.05
2022-12-12T21:19:13.731Z,-3.09
2022-12-12T21:21:42.516Z,-3.09
2022-12-12T21:24:14.257Z,-3.08
2022-12-12T21:26:41.492Z,-3.10
2022-12-12T21:29:09.218Z,-3.10
2022-12-12T21:31:46.317Z,-3.10
2022-12-12T21:34:17.504Z,-3.11
2022-12-12T21:36:44.734Z,-3.12
2022-12-12T21:39:11.830Z,-3.13
2022-12-12T21:41:40.943Z,-3.12
2022-12-12T21:44:09.916Z,-3.10
2022-12-12T21:46:38.864Z,-3.07
2022-12-12T21:49:24.113Z,-3.07
2022-12-12T21:51:53.180Z,-3.06
2022-12-12T21:54:20.572Z,-3.07
2022-12-12T21:56:47.748Z,-3.08
2022-12-12T21:59:15.255Z,-3.11
2022-12-12T22:01:42.854Z,-3.10
2022-12-12T22:04:11.826Z,-3.11
2022-12-12T22:06:39.248Z,-3.11
2022-12-12T22:09:09.479Z,-3.11
2022-12-12T22:11:40.875Z,-3.15
2022-12-12T22:14:17.891Z,-3.17
2022-12-12T22:16:44.804Z,-3.16
2022-12-12T22:19:13.180Z,-3.17
2022-12-12T22:21:40.239Z,-3.18
2022-12-12T22:24:07.275Z,-3.20
2022-12-12T22:26:39.205Z,-3.18
2022-12-12T22:29:10.577Z,-3.21
2022-12-12T22:31:39.088Z,-3.23
2022-12-12T22:34:14.088Z,-3.24
2022-12-12T22:36:41.470Z,-3.30
2022-12-12T22:39:13.978Z,-3.30
2022-12-12T22:41:40.897Z,-3.32
2022-12-12T22:44:07.590Z,-3.34
2022-12-12T22:46:36.973Z,-3.37
2022-12-12T22:49:10.745Z,-3.41
2022-12-12T22:51:38.275Z,-3.42
2022-12-12T22:54:05.610Z,-3.43
2022-12-12T22:56:34.142Z,-3.43
2022-12-12T22:59:01.151Z,-3.45
2022-12-12T23:01:28.733Z,-3.49
2022-12-12T23:03:56.325Z,-3.51
2022-12-12T23:06:26.592Z,-3.55
2022-12-12T23:09:14.601Z,-3.56
2022-12-12T23:11:41.940Z,-3.57
2022-12-12T23:14:15.521Z,-3.58
2022-12-12T23:16:43.197Z,-3.60
2022-12-12T23:19:12.106Z,-3.64
2022-12-12T23:21:38.960Z,-3.67
2022-12-12T23:24:06.458Z,-3.67
2022-12-12T23:26:36.094Z,-3.65
2022-12-12T23:29:07.424Z,-3.69
2022-12-12T23:31:36.827Z,-3.69
2022-12-12T23:34:08.287Z,-3.73
2022-12-12T23:36:35.368Z,-3.75
2022-12-12T23:39:07.196Z,-3.77
2022-12-12T23:41:35.880Z,-3.77
2022-12-12T23:44:02.673Z,-3.79
2022-12-12T23:46:31.576Z,-3.84
2022-12-12T23:49:04.572Z,-3.89
2022-12-12T23:51:34.995Z,-3.90
2022-12-12T23:54:04.220Z,-3.90
2022-12-12T23:56:31.945Z,-3.89
2022-12-12T23:58:59.607Z,-3.90
